Big Bend, California
Current Conditions -  °F | °C
As of 9:56 PM on Tuesday 21 Oct 2014 (Local Time) from KMHS Reporting Station
Overcast Overcast  
Wind Chill: 42°   Ceiling: 9500
Heat Index: 42°   Visibility: 10mi
Dew Point: 38°   Wind: 3mph
Humidity: 85%   Direction: 60°ENE
Pressure: 30.07"   Gusts: NA
Location:  41.02°N, 121.91°W
Report Text: KMHS 220456Z AUTO 06003KT 10SM BKN095 OVC120 06/03 A3007 RMK AO2 SLP204 T00560033
Loading
Personal Weather Stations






























Interactive Weather Map
Tropical Storm Tracking
New forecast layout! Learn more

10-Day Weather Forecast

Advertisements
Track Severe Weather on mobile